sensor_id;sensor_type;location;lat;lon;timestamp;temperature;humidity
7004;DHT22;3542;48.812;9.146;2022-09-12T00:00:09;11.70;99.90
7004;DHT22;3542;48.812;9.146;2022-09-12T00:02:35;11.60;99.90
7004;DHT22;3542;48.812;9.146;2022-09-12T00:05:00;11.60;99.90
7004;DHT22;3542;48.812;9.146;2022-09-12T00:07:26;11.60;99.90
7004;DHT22;3542;48.812;9.146;2022-09-12T00:09:51;11.60;99.90
7004;DHT22;3542;48.812;9.146;2022-09-12T00:12:17;11.50;99.90
7004;DHT22;3542;48.812;9.146;2022-09-12T00:14:42;11.50;99.90
7004;DHT22;3542;48.812;9.146;2022-09-12T00:17:08;11.50;99.90
7004;DHT22;3542;48.812;9.146;2022-09-12T00:19:34;11.50;99.90
7004;DHT22;3542;48.812;9.146;2022-09-12T00:21:59;11.50;99.90
7004;DHT22;3542;48.812;9.146;2022-09-12T00:24:25;11.50;99.90
7004;DHT22;3542;48.812;9.146;2022-09-12T00:26:50;11.50;99.90
7004;DHT22;3542;48.812;9.146;2022-09-12T00:29:18;11.50;99.90
7004;DHT22;3542;48.812;9.146;2022-09-12T00:31:44;11.40;99.90
7004;DHT22;3542;48.812;9.146;2022-09-12T00:34:10;11.40;99.90
7004;DHT22;3542;48.812;9.146;2022-09-12T00:36:35;11.40;99.90
7004;DHT22;3542;48.812;9.146;2022-09-12T00:39:02;11.40;99.90
7004;DHT22;3542;48.812;9.146;2022-09-12T00:41:31;11.40;99.90
7004;DHT22;3542;48.812;9.146;2022-09-12T00:44:00;11.40;99.90
7004;DHT22;3542;48.812;9.146;2022-09-12T00:49:55;11.30;99.90
7004;DHT22;3542;48.812;9.146;2022-09-12T00:52:11;11.30;99.90
7004;DHT22;3542;48.812;9.146;2022-09-12T00:54:48;11.30;99.90
7004;DHT22;3542;48.812;9.146;2022-09-12T00:57:15;11.20;99.90
7004;DHT22;3542;48.812;9.146;2022-09-12T00:59:56;11.20;99.90
7004;DHT22;3542;48.812;9.146;2022-09-12T02:31:47;10.60;99.90
7004;DHT22;3542;48.812;9.146;2022-09-12T02:37:22;10.50;99.90
7004;DHT22;3542;48.812;9.146;2022-09-12T02:39:54;10.60;99.90
7004;DHT22;3542;48.812;9.146;2022-09-12T02:42:20;10.50;99.90
7004;DHT22;3542;48.812;9.146;2022-09-12T02:44:47;10.50;99.90
7004;DHT22;3542;48.812;9.146;2022-09-12T02:47:22;10.50;99.90
7004;DHT22;3542;48.812;9.146;2022-09-12T02:49:49;10.40;99.90
7004;DHT22;3542;48.812;9.146;2022-09-12T02:52:15;10.50;99.90
7004;DHT22;3542;48.812;9.146;2022-09-12T02:54:42;10.50;99.90
7004;DHT22;3542;48.812;9.146;2022-09-12T02:57:18;10.40;99.90
7004;DHT22;3542;48.812;9.146;2022-09-12T02:59:44;10.40;99.90
7004;DHT22;3542;48.812;9.146;2022-09-12T03:05:26;10.40;99.90
7004;DHT22;3542;48.812;9.146;2022-09-12T03:11:01;10.30;99.90
7004;DHT22;3542;48.812;9.146;2022-09-12T03:19:24;10.20;99.90
7004;DHT22;3542;48.812;9.146;2022-09-12T03:22:11;10.30;99.90
7004;DHT22;3542;48.812;9.146;2022-09-12T03:24:50;10.30;99.90
7004;DHT22;3542;48.812;9.146;2022-09-12T03:27:28;10.20;99.90
7004;DHT22;3542;48.812;9.146;2022-09-12T03:29:56;10.20;99.90
7004;DHT22;3542;48.812;9.146;2022-09-12T03:32:48;10.20;99.90
7004;DHT22;3542;48.812;9.146;2022-09-12T03:35:15;10.20;99.90
7004;DHT22;3542;48.812;9.146;2022-09-12T03:37:41;10.20;99.90
7004;DHT22;3542;48.812;9.146;2022-09-12T03:40:08;10.10;99.90
7004;DHT22;3542;48.812;9.146;2022-09-12T03:42:34;10.10;99.90
7004;DHT22;3542;48.812;9.146;2022-09-12T03:44:59;10.10;99.90
7004;DHT22;3542;48.812;9.146;2022-09-12T03:47:25;10.10;99.90
7004;DHT22;3542;48.812;9.146;2022-09-12T03:49:51;10.10;99.90
7004;DHT22;3542;48.812;9.146;2022-09-12T03:52:19;10.10;99.90
7004;DHT22;3542;48.812;9.146;2022-09-12T03:54:45;10.10;99.90
7004;DHT22;3542;48.812;9.146;2022-09-12T03:57:10;10.00;99.90
7004;DHT22;3542;48.812;9.146;2022-09-12T03:59:36;10.00;99.90
7004;DHT22;3542;48.812;9.146;2022-09-12T04:02:02;10.00;99.90
7004;DHT22;3542;48.812;9.146;2022-09-12T04:04:29;10.00;99.90
7004;DHT22;3542;48.812;9.146;2022-09-12T04:06:54;9.90;99.90
7004;DHT22;3542;48.812;9.146;2022-09-12T04:09:20;9.90;99.90
7004;DHT22;3542;48.812;9.146;2022-09-12T04:11:45;9.90;99.90
7004;DHT22;3542;48.812;9.146;2022-09-12T04:14:11;9.90;99.90
7004;DHT22;3542;48.812;9.146;2022-09-12T04:16:36;9.90;99.90
7004;DHT22;3542;48.812;9.146;2022-09-12T04:19:02;9.90;99.90
7004;DHT22;3542;48.812;9.146;2022-09-12T04:21:28;9.90;99.90
7004;DHT22;3542;48.812;9.146;2022-09-12T04:23:53;9.90;99.90
7004;DHT22;3542;48.812;9.146;2022-09-12T04:26:19;9.90;99.90
7004;DHT22;3542;48.812;9.146;2022-09-12T04:28:46;9.90;99.90
7004;DHT22;3542;48.812;9.146;2022-09-12T04:31:14;9.80;99.90
7004;DHT22;3542;48.812;9.146;2022-09-12T04:33:42;9.80;99.90
7004;DHT22;3542;48.812;9.146;2022-09-12T04:36:11;9.80;99.90
7004;DHT22;3542;48.812;9.146;2022-09-12T04:38:38;9.80;99.90
7004;DHT22;3542;48.812;9.146;2022-09-12T04:41:24;9.80;99.90
7004;DHT22;3542;48.812;9.146;2022-09-12T04:43:52;9.80;99.90
7004;DHT22;3542;48.812;9.146;2022-09-12T04:46:19;9.80;99.90
7004;DHT22;3542;48.812;9.146;2022-09-12T04:48:46;9.80;99.90
7004;DHT22;3542;48.812;9.146;2022-09-12T04:51:15;9.80;99.90
7004;DHT22;3542;48.812;9.146;2022-09-12T04:53:42;9.80;99.90
7004;DHT22;3542;48.812;9.146;2022-09-12T04:56:10;9.80;99.90
7004;DHT22;3542;48.812;9.146;2022-09-12T04:58:36;9.80;99.90
7004;DHT22;3542;48.812;9.146;2022-09-12T05:01:10;9.80;99.90
7004;DHT22;3542;48.812;9.146;2022-09-12T05:03:36;9.80;99.90
7004;DHT22;3542;48.812;9.146;2022-09-12T05:06:06;9.80;99.90
7004;DHT22;3542;48.812;9.146;2022-09-12T05:08:33;9.80;99.90
7004;DHT22;3542;48.812;9.146;2022-09-12T05:11:03;9.80;99.90
7004;DHT22;3542;48.812;9.146;2022-09-12T05:13:30;9.80;99.90
7004;DHT22;3542;48.812;9.146;2022-09-12T05:15:57;9.90;99.90
7004;DHT22;3542;48.812;9.146;2022-09-12T05:18:23;9.90;99.90
7004;DHT22;3542;48.812;9.146;2022-09-12T05:20:51;10.00;99.90
7004;DHT22;3542;48.812;9.146;2022-09-12T05:23:16;10.00;99.90
7004;DHT22;3542;48.812;9.146;2022-09-12T05:25:52;10.00;99.90
7004;DHT22;3542;48.812;9.146;2022-09-12T05:28:19;10.10;99.90
7004;DHT22;3542;48.812;9.146;2022-09-12T05:30:45;10.20;99.90
7004;DHT22;3542;48.812;9.146;2022-09-12T05:33:11;10.20;99.90
7004;DHT22;3542;48.812;9.146;2022-09-12T05:35:37;10.30;99.90
7004;DHT22;3542;48.812;9.146;2022-09-12T05:38:03;10.40;99.90
7004;DHT22;3542;48.812;9.146;2022-09-12T05:40:29;10.40;99.90
7004;DHT22;3542;48.812;9.146;2022-09-12T05:42:55;10.50;99.90
7004;DHT22;3542;48.812;9.146;2022-09-12T05:45:20;10.60;99.90
7004;DHT22;3542;48.812;9.146;2022-09-12T05:47:46;10.70;99.90
7004;DHT22;3542;48.812;9.146;2022-09-12T05:50:11;10.80;99.90
7004;DHT22;3542;48.812;9.146;2022-09-12T05:52:37;10.90;99.90
7004;DHT22;3542;48.812;9.146;2022-09-12T05:55:03;11.00;99.90
7004;DHT22;3542;48.812;9.146;2022-09-12T05:57:29;11.20;99.90
7004;DHT22;3542;48.812;9.146;2022-09-12T05:59:55;11.40;99.90
7004;DHT22;3542;48.812;9.146;2022-09-12T06:02:20;11.80;99.90
7004;DHT22;3542;48.812;9.146;2022-09-12T06:04:46;12.70;99.90
7004;DHT22;3542;48.812;9.146;2022-09-12T06:07:11;14.70;99.90
7004;DHT22;3542;48.812;9.146;2022-09-12T06:09:37;16.80;99.90
7004;DHT22;3542;48.812;9.146;2022-09-12T06:12:03;18.60;99.90
7004;DHT22;3542;48.812;9.146;2022-09-12T06:14:28;19.80;99.90
7004;DHT22;3542;48.812;9.146;2022-09-12T06:16:54;21.20;99.90
7004;DHT22;3542;48.812;9.146;2022-09-12T06:19:20;22.20;99.90
7004;DHT22;3542;48.812;9.146;2022-09-12T06:21:48;23.50;99.90
7004;DHT22;3542;48.812;9.146;2022-09-12T06:24:15;23.90;99.90
7004;DHT22;3542;48.812;9.146;2022-09-12T06:26:41;24.80;99.90
7004;DHT22;3542;48.812;9.146;2022-09-12T06:29:09;24.60;99.90
7004;DHT22;3542;48.812;9.146;2022-09-12T06:31:37;24.90;99.90
7004;DHT22;3542;48.812;9.146;2022-09-12T06:34:05;25.70;99.90
7004;DHT22;3542;48.812;9.146;2022-09-12T06:36:32;25.70;99.90
7004;DHT22;3542;48.812;9.146;2022-09-12T06:39:01;26.60;99.90
7004;DHT22;3542;48.812;9.146;2022-09-12T06:41:28;25.70;99.90
7004;DHT22;3542;48.812;9.146;2022-09-12T06:43:55;26.40;99.90
7004;DHT22;3542;48.812;9.146;2022-09-12T06:46:21;25.80;99.90
7004;DHT22;3542;48.812;9.146;2022-09-12T06:48:47;26.00;99.90
7004;DHT22;3542;48.812;9.146;2022-09-12T06:51:14;25.70;99.90
7004;DHT22;3542;48.812;9.146;2022-09-12T06:53:41;25.40;99.90
7004;DHT22;3542;48.812;9.146;2022-09-12T06:56:18;25.30;99.90
7004;DHT22;3542;48.812;9.146;2022-09-12T06:58:45;24.70;99.90
7004;DHT22;3542;48.812;9.146;2022-09-12T07:01:16;24.40;99.90
7004;DHT22;3542;48.812;9.146;2022-09-12T07:03:45;23.90;99.90
7004;DHT22;3542;48.812;9.146;2022-09-12T07:06:13;23.30;99.90
7004;DHT22;3542;48.812;9.146;2022-09-12T07:08:39;23.00;99.90
7004;DHT22;3542;48.812;9.146;2022-09-12T07:11:14;22.90;99.90
7004;DHT22;3542;48.812;9.146;2022-09-12T07:13:42;22.90;99.90
7004;DHT22;3542;48.812;9.146;2022-09-12T07:16:09;22.60;99.90
7004;DHT22;3542;48.812;9.146;2022-09-12T07:18:36;22.80;99.90
7004;DHT22;3542;48.812;9.146;2022-09-12T07:21:08;22.70;99.90
7004;DHT22;3542;48.812;9.146;2022-09-12T07:23:34;22.50;99.90
7004;DHT22;3542;48.812;9.146;2022-09-12T07:26:00;22.60;99.90
7004;DHT22;3542;48.812;9.146;2022-09-12T07:28:28;22.80;99.90
7004;DHT22;3542;48.812;9.146;2022-09-12T07:30:54;22.70;99.90
7004;DHT22;3542;48.812;9.146;2022-09-12T07:33:21;22.70;99.90
7004;DHT22;3542;48.812;9.146;2022-09-12T07:35:46;23.00;99.90
7004;DHT22;3542;48.812;9.146;2022-09-12T07:38:12;23.20;99.90
7004;DHT22;3542;48.812;9.146;2022-09-12T07:40:38;23.30;99.90
7004;DHT22;3542;48.812;9.146;2022-09-12T07:43:03;23.60;99.90
7004;DHT22;3542;48.812;9.146;2022-09-12T07:45:29;23.60;99.90
7004;DHT22;3542;48.812;9.146;2022-09-12T07:47:55;23.90;99.90
7004;DHT22;3542;48.812;9.146;2022-09-12T07:50:21;24.10;99.90
7004;DHT22;3542;48.812;9.146;2022-09-12T07:52:46;24.00;99.90
7004;DHT22;3542;48.812;9.146;2022-09-12T07:55:12;23.80;99.90
7004;DHT22;3542;48.812;9.146;2022-09-12T07:57:37;24.30;99.90
7004;DHT22;3542;48.812;9.146;2022-09-12T08:00:04;24.60;99.90
7004;DHT22;3542;48.812;9.146;2022-09-12T08:02:30;24.70;99.90
7004;DHT22;3542;48.812;9.146;2022-09-12T08:04:55;24.90;99.90
7004;DHT22;3542;48.812;9.146;2022-09-12T08:07:21;25.20;99.90
7004;DHT22;3542;48.812;9.146;2022-09-12T08:09:46;25.00;99.90
7004;DHT22;3542;48.812;9.146;2022-09-12T08:12:13;24.80;99.90
7004;DHT22;3542;48.812;9.146;2022-09-12T08:14:39;24.90;99.90
7004;DHT22;3542;48.812;9.146;2022-09-12T08:17:04;25.10;99.90
7004;DHT22;3542;48.812;9.146;2022-09-12T08:19:30;24.90;99.90
7004;DHT22;3542;48.812;9.146;2022-09-12T08:21:56;25.10;99.90
7004;DHT22;3542;48.812;9.146;2022-09-12T08:24:21;25.70;99.90
7004;DHT22;3542;48.812;9.146;2022-09-12T08:26:47;25.70;99.90
7004;DHT22;3542;48.812;9.146;2022-09-12T08:29:13;25.30;99.90
7004;DHT22;3542;48.812;9.146;2022-09-12T08:31:38;25.60;99.90
7004;DHT22;3542;48.812;9.146;2022-09-12T08:34:05;25.90;99.90
7004;DHT22;3542;48.812;9.146;2022-09-12T08:36:31;26.30;99.90
7004;DHT22;3542;48.812;9.146;2022-09-12T08:39:01;26.00;99.90
7004;DHT22;3542;48.812;9.146;2022-09-12T08:41:44;25.70;99.90
7004;DHT22;3542;48.812;9.146;2022-09-12T08:47:39;26.40;99.90
7004;DHT22;3542;48.812;9.146;2022-09-12T08:50:11;26.50;99.90
7004;DHT22;3542;48.812;9.146;2022-09-12T08:53:20;26.40;99.90
7004;DHT22;3542;48.812;9.146;2022-09-12T08:55:50;26.60;99.90
7004;DHT22;3542;48.812;9.146;2022-09-12T08:58:20;26.50;99.90
7004;DHT22;3542;48.812;9.146;2022-09-12T09:03:55;27.00;99.90
7004;DHT22;3542;48.812;9.146;2022-09-12T09:15:06;27.40;99.90
7004;DHT22;3542;48.812;9.146;2022-09-12T09:17:39;27.60;99.90
7004;DHT22;3542;48.812;9.146;2022-09-12T09:23:01;27.90;99.90
7004;DHT22;3542;48.812;9.146;2022-09-12T09:25:40;28.10;99.90
7004;DHT22;3542;48.812;9.146;2022-09-12T09:28:14;28.30;99.90
7004;DHT22;3542;48.812;9.146;2022-09-12T09:30:42;28.20;99.90
7004;DHT22;3542;48.812;9.146;2022-09-12T09:33:17;28.50;99.90
7004;DHT22;3542;48.812;9.146;2022-09-12T09:35:46;28.50;99.90
7004;DHT22;3542;48.812;9.146;2022-09-12T09:38:22;28.80;99.90
7004;DHT22;3542;48.812;9.146;2022-09-12T09:41:14;28.80;99.90
7004;DHT22;3542;48.812;9.146;2022-09-12T09:43:43;29.20;99.90
7004;DHT22;3542;48.812;9.146;2022-09-12T09:46:09;29.30;99.90
7004;DHT22;3542;48.812;9.146;2022-09-12T09:48:39;29.20;99.90
7004;DHT22;3542;48.812;9.146;2022-09-12T09:51:06;29.00;99.90
7004;DHT22;3542;48.812;9.146;2022-09-12T09:56:13;29.20;99.90
7004;DHT22;3542;48.812;9.146;2022-09-12T09:58:39;28.90;99.90
7004;DHT22;3542;48.812;9.146;2022-09-12T10:01:13;29.00;99.90
7004;DHT22;3542;48.812;9.146;2022-09-12T10:03:39;29.50;99.90
7004;DHT22;3542;48.812;9.146;2022-09-12T10:06:31;29.40;99.90
7004;DHT22;3542;48.812;9.146;2022-09-12T10:11:39;29.00;99.90
7004;DHT22;3542;48.812;9.146;2022-09-12T10:16:53;29.30;99.90
7004;DHT22;3542;48.812;9.146;2022-09-12T10:19:34;29.40;99.90
7004;DHT22;3542;48.812;9.146;2022-09-12T10:22:00;29.40;99.90
7004;DHT22;3542;48.812;9.146;2022-09-12T10:24:31;29.20;99.90
7004;DHT22;3542;48.812;9.146;2022-09-12T10:27:15;29.60;99.90
7004;DHT22;3542;48.812;9.146;2022-09-12T10:29:49;30.30;99.90
7004;DHT22;3542;48.812;9.146;2022-09-12T10:32:37;30.00;99.90
7004;DHT22;3542;48.812;9.146;2022-09-12T10:35:21;30.10;99.90
7004;DHT22;3542;48.812;9.146;2022-09-12T10:38:02;29.80;99.90
7004;DHT22;3542;48.812;9.146;2022-09-12T10:40:36;29.80;99.80
7004;DHT22;3542;48.812;9.146;2022-09-12T10:45:56;29.40;98.90
7004;DHT22;3542;48.812;9.146;2022-09-12T10:48:30;29.60;99.30
7004;DHT22;3542;48.812;9.146;2022-09-12T10:50:59;29.20;99.90
7004;DHT22;3542;48.812;9.146;2022-09-12T10:53:39;29.10;98.40
7004;DHT22;3542;48.812;9.146;2022-09-12T10:56:19;29.10;97.90
7004;DHT22;3542;48.812;9.146;2022-09-12T10:58:56;29.20;98.70
7004;DHT22;3542;48.812;9.146;2022-09-12T11:01:34;29.60;98.40
7004;DHT22;3542;48.812;9.146;2022-09-12T11:04:21;29.30;96.80
7004;DHT22;3542;48.812;9.146;2022-09-12T11:17:46;29.00;95.60
7004;DHT22;3542;48.812;9.146;2022-09-12T11:20:42;29.10;97.20
7004;DHT22;3542;48.812;9.146;2022-09-12T11:26:01;29.10;96.30
7004;DHT22;3542;48.812;9.146;2022-09-12T11:28:51;29.40;96.00
7004;DHT22;3542;48.812;9.146;2022-09-12T11:33:56;29.30;96.10
7004;DHT22;3542;48.812;9.146;2022-09-12T11:36:32;29.40;96.90
7004;DHT22;3542;48.812;9.146;2022-09-12T11:39:15;29.40;95.20
7004;DHT22;3542;48.812;9.146;2022-09-12T11:41:48;29.50;94.10
7004;DHT22;3542;48.812;9.146;2022-09-12T11:44:22;28.80;94.00
7004;DHT22;3542;48.812;9.146;2022-09-12T11:46:49;28.30;94.20
7004;DHT22;3542;48.812;9.146;2022-09-12T11:49:33;28.00;94.20
7004;DHT22;3542;48.812;9.146;2022-09-12T11:52:05;27.60;94.10
7004;DHT22;3542;48.812;9.146;2022-09-12T11:59:57;27.40;95.30
7004;DHT22;3542;48.812;9.146;2022-09-12T12:02:29;27.20;94.30
7004;DHT22;3542;48.812;9.146;2022-09-12T12:05:08;27.20;94.70
7004;DHT22;3542;48.812;9.146;2022-09-12T12:07:41;27.40;95.80
7004;DHT22;3542;48.812;9.146;2022-09-12T12:10:22;27.30;94.20
7004;DHT22;3542;48.812;9.146;2022-09-12T12:12:49;27.10;94.90
7004;DHT22;3542;48.812;9.146;2022-09-12T12:15:16;27.30;95.60
7004;DHT22;3542;48.812;9.146;2022-09-12T12:17:42;27.60;93.90
7004;DHT22;3542;48.812;9.146;2022-09-12T12:20:15;27.60;93.70
7004;DHT22;3542;48.812;9.146;2022-09-12T12:22:52;27.30;93.40
7004;DHT22;3542;48.812;9.146;2022-09-12T12:32:58;26.70;93.00
7004;DHT22;3542;48.812;9.146;2022-09-12T12:35:44;26.60;92.70
7004;DHT22;3542;48.812;9.146;2022-09-12T12:43:47;26.20;92.30
7004;DHT22;3542;48.812;9.146;2022-09-12T12:46:14;26.10;92.70
7004;DHT22;3542;48.812;9.146;2022-09-12T12:49:24;26.10;92.70
7004;DHT22;3542;48.812;9.146;2022-09-12T12:51:42;26.20;93.90
7004;DHT22;3542;48.812;9.146;2022-09-12T12:54:30;26.20;94.30
7004;DHT22;3542;48.812;9.146;2022-09-12T12:57:21;26.10;93.80
7004;DHT22;3542;48.812;9.146;2022-09-12T13:00:24;26.00;94.00
7004;DHT22;3542;48.812;9.146;2022-09-12T13:02:40;25.90;93.80
7004;DHT22;3542;48.812;9.146;2022-09-12T13:05:16;25.60;93.40
7004;DHT22;3542;48.812;9.146;2022-09-12T13:07:44;25.50;93.50
7004;DHT22;3542;48.812;9.146;2022-09-12T13:10:22;25.50;93.70
7004;DHT22;3542;48.812;9.146;2022-09-12T13:12:49;25.40;95.90
7004;DHT22;3542;48.812;9.146;2022-09-12T13:15:45;25.50;94.90
7004;DHT22;3542;48.812;9.146;2022-09-12T13:21:13;25.30;95.20
7004;DHT22;3542;48.812;9.146;2022-09-12T13:23:39;25.40;94.30
7004;DHT22;3542;48.812;9.146;2022-09-12T13:26:33;25.40;94.30
7004;DHT22;3542;48.812;9.146;2022-09-12T13:29:14;25.40;94.70
7004;DHT22;3542;48.812;9.146;2022-09-12T13:31:41;25.40;95.40
7004;DHT22;3542;48.812;9.146;2022-09-12T13:34:08;25.40;95.50
7004;DHT22;3542;48.812;9.146;2022-09-12T13:37:09;25.40;94.90
7004;DHT22;3542;48.812;9.146;2022-09-12T13:45:14;25.30;95.60
7004;DHT22;3542;48.812;9.146;2022-09-12T13:47:44;25.30;95.60
7004;DHT22;3542;48.812;9.146;2022-09-12T13:50:29;25.30;95.40
7004;DHT22;3542;48.812;9.146;2022-09-12T13:53:04;25.20;96.90
7004;DHT22;3542;48.812;9.146;2022-09-12T13:55:33;25.30;94.90
7004;DHT22;3542;48.812;9.146;2022-09-12T13:58:22;25.20;94.70
7004;DHT22;3542;48.812;9.146;2022-09-12T14:03:37;25.20;93.70
7004;DHT22;3542;48.812;9.146;2022-09-12T14:06:21;25.30;94.10
7004;DHT22;3542;48.812;9.146;2022-09-12T14:08:49;25.20;94.00
7004;DHT22;3542;48.812;9.146;2022-09-12T14:11:26;25.20;94.70
7004;DHT22;3542;48.812;9.146;2022-09-12T14:13:52;25.00;94.90
7004;DHT22;3542;48.812;9.146;2022-09-12T14:16:20;24.90;95.10
7004;DHT22;3542;48.812;9.146;2022-09-12T14:18:48;25.00;95.00
7004;DHT22;3542;48.812;9.146;2022-09-12T14:23:55;24.90;94.70
7004;DHT22;3542;48.812;9.146;2022-09-12T14:26:22;24.90;95.20
7004;DHT22;3542;48.812;9.146;2022-09-12T14:28:49;24.90;95.20
7004;DHT22;3542;48.812;9.146;2022-09-12T14:31:31;24.90;95.20
7004;DHT22;3542;48.812;9.146;2022-09-12T14:34:13;24.90;95.00
7004;DHT22;3542;48.812;9.146;2022-09-12T14:36:45;24.90;94.50
7004;DHT22;3542;48.812;9.146;2022-09-12T14:41:47;24.80;94.50
7004;DHT22;3542;48.812;9.146;2022-09-12T14:44:18;24.70;94.60
7004;DHT22;3542;48.812;9.146;2022-09-12T14:46:46;24.70;94.30
7004;DHT22;3542;48.812;9.146;2022-09-12T14:49:33;24.60;95.30
7004;DHT22;3542;48.812;9.146;2022-09-12T14:52:02;24.70;95.10
7004;DHT22;3542;48.812;9.146;2022-09-12T14:56:59;24.80;96.60
7004;DHT22;3542;48.812;9.146;2022-09-12T15:02:21;24.80;96.70
7004;DHT22;3542;48.812;9.146;2022-09-12T15:09:50;24.80;95.90
7004;DHT22;3542;48.812;9.146;2022-09-12T15:12:16;24.80;95.50
7004;DHT22;3542;48.812;9.146;2022-09-12T15:14:42;24.70;95.30
7004;DHT22;3542;48.812;9.146;2022-09-12T15:17:07;24.70;95.10
7004;DHT22;3542;48.812;9.146;2022-09-12T15:19:33;24.70;95.50
7004;DHT22;3542;48.812;9.146;2022-09-12T15:21:58;24.70;95.60
7004;DHT22;3542;48.812;9.146;2022-09-12T15:24:24;24.60;95.90
7004;DHT22;3542;48.812;9.146;2022-09-12T15:26:49;24.70;96.00
7004;DHT22;3542;48.812;9.146;2022-09-12T15:29:15;24.60;95.30
7004;DHT22;3542;48.812;9.146;2022-09-12T15:31:40;24.60;95.60
7004;DHT22;3542;48.812;9.146;2022-09-12T15:34:10;24.60;95.50
7004;DHT22;3542;48.812;9.146;2022-09-12T15:36:35;24.50;95.70
7004;DHT22;3542;48.812;9.146;2022-09-12T15:39:01;24.50;95.60
7004;DHT22;3542;48.812;9.146;2022-09-12T15:41:36;24.40;95.90
7004;DHT22;3542;48.812;9.146;2022-09-12T15:44:03;24.40;96.10
7004;DHT22;3542;48.812;9.146;2022-09-12T15:46:29;24.40;96.40
7004;DHT22;3542;48.812;9.146;2022-09-12T15:48:55;24.50;96.10
7004;DHT22;3542;48.812;9.146;2022-09-12T15:51:21;24.40;96.20
7004;DHT22;3542;48.812;9.146;2022-09-12T15:53:48;24.30;95.80
7004;DHT22;3542;48.812;9.146;2022-09-12T15:56:16;24.30;96.20
7004;DHT22;3542;48.812;9.146;2022-09-12T15:58:42;24.30;96.60
7004;DHT22;3542;48.812;9.146;2022-09-12T16:01:16;24.20;96.80
7004;DHT22;3542;48.812;9.146;2022-09-12T16:03:45;24.30;96.90
7004;DHT22;3542;48.812;9.146;2022-09-12T16:06:11;24.30;97.70
7004;DHT22;3542;48.812;9.146;2022-09-12T16:08:36;24.20;97.80
7004;DHT22;3542;48.812;9.146;2022-09-12T16:11:04;24.10;98.30
7004;DHT22;3542;48.812;9.146;2022-09-12T16:13:31;24.10;98.00
7004;DHT22;3542;48.812;9.146;2022-09-12T16:15:57;24.10;98.20
7004;DHT22;3542;48.812;9.146;2022-09-12T16:18:23;24.00;98.00
7004;DHT22;3542;48.812;9.146;2022-09-12T16:20:53;24.00;98.30
7004;DHT22;3542;48.812;9.146;2022-09-12T16:23:19;24.00;98.60
7004;DHT22;3542;48.812;9.146;2022-09-12T16:25:45;24.00;99.10
7004;DHT22;3542;48.812;9.146;2022-09-12T16:28:19;23.90;99.20
7004;DHT22;3542;48.812;9.146;2022-09-12T16:30:54;23.90;99.30
7004;DHT22;3542;48.812;9.146;2022-09-12T16:33:19;23.80;99.40
7004;DHT22;3542;48.812;9.146;2022-09-12T16:35:45;23.80;99.30
7004;DHT22;3542;48.812;9.146;2022-09-12T16:38:10;23.70;99.50
7004;DHT22;3542;48.812;9.146;2022-09-12T16:40:36;23.70;99.90
7004;DHT22;3542;48.812;9.146;2022-09-12T16:43:01;23.60;99.90
7004;DHT22;3542;48.812;9.146;2022-09-12T16:45:27;23.60;99.90
7004;DHT22;3542;48.812;9.146;2022-09-12T16:47:52;23.60;99.90
7004;DHT22;3542;48.812;9.146;2022-09-12T16:50:18;23.50;99.90
7004;DHT22;3542;48.812;9.146;2022-09-12T16:52:43;23.50;99.90
7004;DHT22;3542;48.812;9.146;2022-09-12T16:55:09;23.40;99.90
7004;DHT22;3542;48.812;9.146;2022-09-12T16:57:34;23.40;99.90
7004;DHT22;3542;48.812;9.146;2022-09-12T17:00:00;23.30;99.90
7004;DHT22;3542;48.812;9.146;2022-09-12T17:02:25;23.20;99.90
7004;DHT22;3542;48.812;9.146;2022-09-12T17:04:51;23.10;99.90
7004;DHT22;3542;48.812;9.146;2022-09-12T17:07:17;23.10;99.90
7004;DHT22;3542;48.812;9.146;2022-09-12T17:09:43;23.10;99.90
7004;DHT22;3542;48.812;9.146;2022-09-12T17:12:08;23.00;99.90
7004;DHT22;3542;48.812;9.146;2022-09-12T17:14:34;22.90;99.90
7004;DHT22;3542;48.812;9.146;2022-09-12T17:16:59;22.70;99.90
7004;DHT22;3542;48.812;9.146;2022-09-12T17:19:26;22.60;99.90
7004;DHT22;3542;48.812;9.146;2022-09-12T17:21:54;22.40;99.90
7004;DHT22;3542;48.812;9.146;2022-09-12T17:24:21;22.20;99.90
7004;DHT22;3542;48.812;9.146;2022-09-12T17:26:47;22.00;99.90
7004;DHT22;3542;48.812;9.146;2022-09-12T17:29:14;21.80;99.90
7004;DHT22;3542;48.812;9.146;2022-09-12T17:31:40;21.60;99.90
7004;DHT22;3542;48.812;9.146;2022-09-12T17:34:06;21.50;99.90
7004;DHT22;3542;48.812;9.146;2022-09-12T17:36:32;21.30;99.90
7004;DHT22;3542;48.812;9.146;2022-09-12T17:38:58;21.10;99.90
7004;DHT22;3542;48.812;9.146;2022-09-12T17:41:27;20.90;99.90
7004;DHT22;3542;48.812;9.146;2022-09-12T17:43:55;20.70;99.90
7004;DHT22;3542;48.812;9.146;2022-09-12T17:46:23;20.60;99.90
7004;DHT22;3542;48.812;9.146;2022-09-12T17:48:56;20.40;99.90
7004;DHT22;3542;48.812;9.146;2022-09-12T17:51:23;20.20;99.90
7004;DHT22;3542;48.812;9.146;2022-09-12T17:54:00;20.10;99.90
7004;DHT22;3542;48.812;9.146;2022-09-12T17:56:27;19.90;99.90
7004;DHT22;3542;48.812;9.146;2022-09-12T17:58:55;19.80;99.90
7004;DHT22;3542;48.812;9.146;2022-09-12T18:01:22;19.70;99.90
7004;DHT22;3542;48.812;9.146;2022-09-12T18:04:06;19.50;99.90
7004;DHT22;3542;48.812;9.146;2022-09-12T18:06:32;19.40;99.90
7004;DHT22;3542;48.812;9.146;2022-09-12T18:09:01;19.20;99.90
7004;DHT22;3542;48.812;9.146;2022-09-12T18:11:27;19.10;99.90
7004;DHT22;3542;48.812;9.146;2022-09-12T18:13:53;19.00;99.90
7004;DHT22;3542;48.812;9.146;2022-09-12T18:16:18;18.90;99.90
7004;DHT22;3542;48.812;9.146;2022-09-12T18:18:44;18.70;99.90
7004;DHT22;3542;48.812;9.146;2022-09-12T18:21:10;18.60;99.90
7004;DHT22;3542;48.812;9.146;2022-09-12T18:23:36;18.50;99.90
7004;DHT22;3542;48.812;9.146;2022-09-12T18:26:07;18.30;99.90
7004;DHT22;3542;48.812;9.146;2022-09-12T18:28:36;18.30;99.90
7004;DHT22;3542;48.812;9.146;2022-09-12T18:31:02;18.10;99.90
7004;DHT22;3542;48.812;9.146;2022-09-12T18:33:28;18.00;99.90
7004;DHT22;3542;48.812;9.146;2022-09-12T18:35:53;18.00;99.90
7004;DHT22;3542;48.812;9.146;2022-09-12T18:38:19;17.90;99.90
7004;DHT22;3542;48.812;9.146;2022-09-12T18:40:45;17.80;99.90
7004;DHT22;3542;48.812;9.146;2022-09-12T18:43:10;17.70;99.90
7004;DHT22;3542;48.812;9.146;2022-09-12T18:45:36;17.70;99.90
7004;DHT22;3542;48.812;9.146;2022-09-12T18:48:01;17.60;99.90
7004;DHT22;3542;48.812;9.146;2022-09-12T18:50:29;17.50;99.90
7004;DHT22;3542;48.812;9.146;2022-09-12T18:52:55;17.40;99.90
7004;DHT22;3542;48.812;9.146;2022-09-12T18:55:20;17.30;99.90
7004;DHT22;3542;48.812;9.146;2022-09-12T18:57:47;17.20;99.90
7004;DHT22;3542;48.812;9.146;2022-09-12T19:00:15;17.10;99.90
7004;DHT22;3542;48.812;9.146;2022-09-12T19:02:40;17.00;99.90
7004;DHT22;3542;48.812;9.146;2022-09-12T19:05:06;17.00;99.90
7004;DHT22;3542;48.812;9.146;2022-09-12T19:07:32;16.90;99.90
7004;DHT22;3542;48.812;9.146;2022-09-12T19:09:57;16.80;99.90
7004;DHT22;3542;48.812;9.146;2022-09-12T19:12:23;16.80;99.90
7004;DHT22;3542;48.812;9.146;2022-09-12T19:14:48;16.70;99.90
7004;DHT22;3542;48.812;9.146;2022-09-12T19:17:14;16.70;99.90
7004;DHT22;3542;48.812;9.146;2022-09-12T19:19:39;16.60;99.90
7004;DHT22;3542;48.812;9.146;2022-09-12T19:22:05;16.60;99.90
7004;DHT22;3542;48.812;9.146;2022-09-12T19:24:31;16.50;99.90
7004;DHT22;3542;48.812;9.146;2022-09-12T19:26:56;16.40;99.90
7004;DHT22;3542;48.812;9.146;2022-09-12T19:29:21;16.30;99.90
7004;DHT22;3542;48.812;9.146;2022-09-12T19:31:47;16.30;99.90
7004;DHT22;3542;48.812;9.146;2022-09-12T19:34:13;16.20;99.90